sensor_id;sensor_type;location;lat;lon;timestamp;temperature;humidity
24041;DHT22;12246;47.612;18.906;2022-10-16T00:02:33;14.50;99.90
24041;DHT22;12246;47.612;18.906;2022-10-16T00:05:25;14.40;99.90
24041;DHT22;12246;47.612;18.906;2022-10-16T00:08:17;14.40;99.90
24041;DHT22;12246;47.612;18.906;2022-10-16T00:11:17;14.40;99.90
24041;DHT22;12246;47.612;18.906;2022-10-16T00:14:12;14.30;99.90
24041;DHT22;12246;47.612;18.906;2022-10-16T00:17:05;14.20;99.90
24041;DHT22;12246;47.612;18.906;2022-10-16T00:19:57;14.20;99.90
24041;DHT22;12246;47.612;18.906;2022-10-16T00:22:49;14.20;99.90
24041;DHT22;12246;47.612;18.906;2022-10-16T00:25:42;14.30;99.90
24041;DHT22;12246;47.612;18.906;2022-10-16T00:28:35;14.30;99.90
24041;DHT22;12246;47.612;18.906;2022-10-16T00:31:28;14.30;99.90
24041;DHT22;12246;47.612;18.906;2022-10-16T00:34:20;14.30;99.90
24041;DHT22;12246;47.612;18.906;2022-10-16T00:37:13;14.30;99.90
24041;DHT22;12246;47.612;18.906;2022-10-16T00:40:05;14.20;99.90
24041;DHT22;12246;47.612;18.906;2022-10-16T00:42:57;14.10;99.90
24041;DHT22;12246;47.612;18.906;2022-10-16T00:45:50;14.20;99.90
24041;DHT22;12246;47.612;18.906;2022-10-16T00:48:50;14.20;99.90
24041;DHT22;12246;47.612;18.906;2022-10-16T00:51:49;14.10;99.90
24041;DHT22;12246;47.612;18.906;2022-10-16T00:54:41;14.20;99.90
24041;DHT22;12246;47.612;18.906;2022-10-16T00:57:34;14.20;99.90
24041;DHT22;12246;47.612;18.906;2022-10-16T01:00:26;14.20;99.90
24041;DHT22;12246;47.612;18.906;2022-10-16T01:03:28;14.20;99.90
24041;DHT22;12246;47.612;18.906;2022-10-16T01:06:24;14.20;99.90
24041;DHT22;12246;47.612;18.906;2022-10-16T01:09:26;14.20;99.90
24041;DHT22;12246;47.612;18.906;2022-10-16T01:12:50;14.10;99.90
24041;DHT22;12246;47.612;18.906;2022-10-16T01:18:46;14.00;99.90
24041;DHT22;12246;47.612;18.906;2022-10-16T01:21:43;14.00;99.90
24041;DHT22;12246;47.612;18.906;2022-10-16T01:24:46;13.90;99.90
24041;DHT22;12246;47.612;18.906;2022-10-16T01:27:40;13.80;99.90
24041;DHT22;12246;47.612;18.906;2022-10-16T01:30:35;13.70;99.90
24041;DHT22;12246;47.612;18.906;2022-10-16T01:33:56;13.70;99.90
24041;DHT22;12246;47.612;18.906;2022-10-16T01:36:57;13.60;99.90
24041;DHT22;12246;47.612;18.906;2022-10-16T01:39:55;13.50;99.90
24041;DHT22;12246;47.612;18.906;2022-10-16T01:42:55;13.40;99.90
24041;DHT22;12246;47.612;18.906;2022-10-16T01:45:53;13.40;99.90
24041;DHT22;12246;47.612;18.906;2022-10-16T01:48:47;13.40;99.90
24041;DHT22;12246;47.612;18.906;2022-10-16T01:51:41;13.50;99.90
24041;DHT22;12246;47.612;18.906;2022-10-16T01:54:37;13.50;99.90
24041;DHT22;12246;47.612;18.906;2022-10-16T01:57:30;13.50;99.90
24041;DHT22;12246;47.612;18.906;2022-10-16T02:00:24;13.50;99.90
24041;DHT22;12246;47.612;18.906;2022-10-16T02:03:18;13.40;99.90
24041;DHT22;12246;47.612;18.906;2022-10-16T02:06:12;13.40;99.90
24041;DHT22;12246;47.612;18.906;2022-10-16T02:09:04;13.30;99.90
24041;DHT22;12246;47.612;18.906;2022-10-16T02:11:57;13.20;99.90
24041;DHT22;12246;47.612;18.906;2022-10-16T02:14:54;13.20;99.90
24041;DHT22;12246;47.612;18.906;2022-10-16T02:17:46;13.20;99.90
24041;DHT22;12246;47.612;18.906;2022-10-16T02:21:04;13.30;99.90
24041;DHT22;12246;47.612;18.906;2022-10-16T02:24:06;13.20;99.90
24041;DHT22;12246;47.612;18.906;2022-10-16T02:30:50;13.10;99.90
24041;DHT22;12246;47.612;18.906;2022-10-16T02:33:44;13.10;99.90
24041;DHT22;12246;47.612;18.906;2022-10-16T02:36:37;13.00;99.90
24041;DHT22;12246;47.612;18.906;2022-10-16T02:39:31;12.80;99.90
24041;DHT22;12246;47.612;18.906;2022-10-16T02:42:34;12.60;99.90
24041;DHT22;12246;47.612;18.906;2022-10-16T02:45:26;12.40;99.90
24041;DHT22;12246;47.612;18.906;2022-10-16T02:48:18;12.40;99.90
24041;DHT22;12246;47.612;18.906;2022-10-16T02:51:10;12.50;99.90
24041;DHT22;12246;47.612;18.906;2022-10-16T02:54:03;12.50;99.90
24041;DHT22;12246;47.612;18.906;2022-10-16T02:56:55;12.50;99.90
24041;DHT22;12246;47.612;18.906;2022-10-16T02:59:47;12.40;99.90
24041;DHT22;12246;47.612;18.906;2022-10-16T03:02:39;12.50;99.90
24041;DHT22;12246;47.612;18.906;2022-10-16T03:05:32;12.40;99.90
24041;DHT22;12246;47.612;18.906;2022-10-16T03:08:24;12.40;99.90
24041;DHT22;12246;47.612;18.906;2022-10-16T03:11:17;12.40;99.90
24041;DHT22;12246;47.612;18.906;2022-10-16T03:14:09;12.40;99.90
24041;DHT22;12246;47.612;18.906;2022-10-16T03:17:01;12.30;99.90
24041;DHT22;12246;47.612;18.906;2022-10-16T03:19:53;12.30;99.90
24041;DHT22;12246;47.612;18.906;2022-10-16T03:22:45;12.20;99.90
24041;DHT22;12246;47.612;18.906;2022-10-16T03:25:37;12.30;99.90
24041;DHT22;12246;47.612;18.906;2022-10-16T03:28:29;12.20;99.90
24041;DHT22;12246;47.612;18.906;2022-10-16T03:31:22;12.10;99.90
24041;DHT22;12246;47.612;18.906;2022-10-16T03:34:14;12.10;99.90
24041;DHT22;12246;47.612;18.906;2022-10-16T03:37:06;12.10;99.90
24041;DHT22;12246;47.612;18.906;2022-10-16T03:39:58;12.00;99.90
24041;DHT22;12246;47.612;18.906;2022-10-16T03:42:51;11.60;99.90
24041;DHT22;12246;47.612;18.906;2022-10-16T03:45:43;10.80;99.90
24041;DHT22;12246;47.612;18.906;2022-10-16T03:48:35;10.50;99.90
24041;DHT22;12246;47.612;18.906;2022-10-16T03:51:27;10.50;99.90
24041;DHT22;12246;47.612;18.906;2022-10-16T03:54:20;10.50;99.90
24041;DHT22;12246;47.612;18.906;2022-10-16T03:57:12;10.40;99.90
24041;DHT22;12246;47.612;18.906;2022-10-16T04:00:04;10.30;99.90
24041;DHT22;12246;47.612;18.906;2022-10-16T04:02:57;10.30;99.90
24041;DHT22;12246;47.612;18.906;2022-10-16T04:05:49;10.30;99.90
24041;DHT22;12246;47.612;18.906;2022-10-16T04:08:45;10.30;99.90
24041;DHT22;12246;47.612;18.906;2022-10-16T04:11:37;10.30;99.90
24041;DHT22;12246;47.612;18.906;2022-10-16T04:14:29;10.10;99.90
24041;DHT22;12246;47.612;18.906;2022-10-16T04:17:21;10.10;99.90
24041;DHT22;12246;47.612;18.906;2022-10-16T04:20:13;9.90;99.90
24041;DHT22;12246;47.612;18.906;2022-10-16T04:23:06;9.90;99.90
24041;DHT22;12246;47.612;18.906;2022-10-16T04:25:58;9.90;99.90
24041;DHT22;12246;47.612;18.906;2022-10-16T04:28:51;10.00;99.90
24041;DHT22;12246;47.612;18.906;2022-10-16T04:31:43;10.10;99.90
24041;DHT22;12246;47.612;18.906;2022-10-16T04:34:35;10.10;99.90
24041;DHT22;12246;47.612;18.906;2022-10-16T04:37:28;10.00;99.90
24041;DHT22;12246;47.612;18.906;2022-10-16T04:40:20;9.90;99.90
24041;DHT22;12246;47.612;18.906;2022-10-16T04:43:12;9.70;99.90
24041;DHT22;12246;47.612;18.906;2022-10-16T04:46:04;9.70;99.90
24041;DHT22;12246;47.612;18.906;2022-10-16T04:48:57;9.60;99.90
24041;DHT22;12246;47.612;18.906;2022-10-16T04:51:49;9.40;99.90
24041;DHT22;12246;47.612;18.906;2022-10-16T04:54:41;9.50;99.90
24041;DHT22;12246;47.612;18.906;2022-10-16T04:57:33;9.70;99.90
24041;DHT22;12246;47.612;18.906;2022-10-16T05:00:26;9.70;99.90
24041;DHT22;12246;47.612;18.906;2022-10-16T05:03:18;9.80;99.90
24041;DHT22;12246;47.612;18.906;2022-10-16T05:06:11;9.80;99.90
24041;DHT22;12246;47.612;18.906;2022-10-16T05:09:03;9.70;99.90
24041;DHT22;12246;47.612;18.906;2022-10-16T05:11:55;9.70;99.90
24041;DHT22;12246;47.612;18.906;2022-10-16T05:14:47;9.70;99.90
24041;DHT22;12246;47.612;18.906;2022-10-16T05:17:40;9.90;99.90
24041;DHT22;12246;47.612;18.906;2022-10-16T05:20:35;9.90;99.90
24041;DHT22;12246;47.612;18.906;2022-10-16T05:23:27;10.00;99.90
24041;DHT22;12246;47.612;18.906;2022-10-16T05:26:20;10.20;99.90
24041;DHT22;12246;47.612;18.906;2022-10-16T05:29:12;10.80;99.90
24041;DHT22;12246;47.612;18.906;2022-10-16T05:32:04;11.40;99.90
24041;DHT22;12246;47.612;18.906;2022-10-16T05:34:56;11.70;99.90
24041;DHT22;12246;47.612;18.906;2022-10-16T05:37:51;11.90;99.90
24041;DHT22;12246;47.612;18.906;2022-10-16T05:40:51;12.40;99.90
24041;DHT22;12246;47.612;18.906;2022-10-16T05:43:44;13.00;99.90
24041;DHT22;12246;47.612;18.906;2022-10-16T05:46:36;12.70;99.90
24041;DHT22;12246;47.612;18.906;2022-10-16T05:49:29;12.70;99.90
24041;DHT22;12246;47.612;18.906;2022-10-16T05:52:21;13.10;99.90
24041;DHT22;12246;47.612;18.906;2022-10-16T05:55:14;13.60;99.90
24041;DHT22;12246;47.612;18.906;2022-10-16T05:58:06;14.20;99.90
24041;DHT22;12246;47.612;18.906;2022-10-16T06:01:12;14.40;99.90
24041;DHT22;12246;47.612;18.906;2022-10-16T06:04:05;14.70;99.90
24041;DHT22;12246;47.612;18.906;2022-10-16T06:07:00;15.60;99.90
24041;DHT22;12246;47.612;18.906;2022-10-16T06:09:53;15.70;99.90
24041;DHT22;12246;47.612;18.906;2022-10-16T06:12:45;15.90;99.90
24041;DHT22;12246;47.612;18.906;2022-10-16T06:15:38;18.10;99.90
24041;DHT22;12246;47.612;18.906;2022-10-16T06:18:31;20.40;99.90
24041;DHT22;12246;47.612;18.906;2022-10-16T06:21:25;22.20;99.90
24041;DHT22;12246;47.612;18.906;2022-10-16T06:24:17;23.90;99.90
24041;DHT22;12246;47.612;18.906;2022-10-16T06:27:09;25.40;96.40
24041;DHT22;12246;47.612;18.906;2022-10-16T06:30:02;26.30;93.20
24041;DHT22;12246;47.612;18.906;2022-10-16T06:32:55;27.00;91.30
24041;DHT22;12246;47.612;18.906;2022-10-16T06:35:47;27.60;87.70
24041;DHT22;12246;47.612;18.906;2022-10-16T06:38:40;27.80;84.10
24041;DHT22;12246;47.612;18.906;2022-10-16T06:41:32;27.50;81.70
24041;DHT22;12246;47.612;18.906;2022-10-16T06:44:25;26.20;83.70
24041;DHT22;12246;47.612;18.906;2022-10-16T06:47:17;24.80;86.50
24041;DHT22;12246;47.612;18.906;2022-10-16T06:50:09;23.80;89.70
24041;DHT22;12246;47.612;18.906;2022-10-16T06:53:01;23.50;91.40
24041;DHT22;12246;47.612;18.906;2022-10-16T06:55:53;23.40;90.90
24041;DHT22;12246;47.612;18.906;2022-10-16T06:58:46;21.80;93.00
24041;DHT22;12246;47.612;18.906;2022-10-16T07:01:38;20.70;94.10
24041;DHT22;12246;47.612;18.906;2022-10-16T07:04:31;20.50;96.30
24041;DHT22;12246;47.612;18.906;2022-10-16T07:07:23;19.80;97.30
24041;DHT22;12246;47.612;18.906;2022-10-16T07:10:18;19.30;99.10
24041;DHT22;12246;47.612;18.906;2022-10-16T07:13:10;19.40;99.60
24041;DHT22;12246;47.612;18.906;2022-10-16T07:19:02;18.20;99.90
24041;DHT22;12246;47.612;18.906;2022-10-16T07:21:54;17.80;99.90
24041;DHT22;12246;47.612;18.906;2022-10-16T07:24:46;18.00;99.90
24041;DHT22;12246;47.612;18.906;2022-10-16T07:27:43;17.80;99.90
24041;DHT22;12246;47.612;18.906;2022-10-16T07:30:36;18.00;99.90
24041;DHT22;12246;47.612;18.906;2022-10-16T07:33:29;17.50;99.90
24041;DHT22;12246;47.612;18.906;2022-10-16T07:36:21;17.30;99.90
24041;DHT22;12246;47.612;18.906;2022-10-16T07:39:13;17.00;99.90
24041;DHT22;12246;47.612;18.906;2022-10-16T07:42:05;16.80;99.90
24041;DHT22;12246;47.612;18.906;2022-10-16T07:44:59;16.80;99.90
24041;DHT22;12246;47.612;18.906;2022-10-16T07:47:51;16.60;99.90
24041;DHT22;12246;47.612;18.906;2022-10-16T07:50:44;16.50;99.90
24041;DHT22;12246;47.612;18.906;2022-10-16T07:53:36;17.20;99.90
24041;DHT22;12246;47.612;18.906;2022-10-16T07:56:30;17.40;99.90
24041;DHT22;12246;47.612;18.906;2022-10-16T07:59:23;17.10;99.90
24041;DHT22;12246;47.612;18.906;2022-10-16T08:02:15;17.10;99.90
24041;DHT22;12246;47.612;18.906;2022-10-16T08:05:08;17.20;99.90
24041;DHT22;12246;47.612;18.906;2022-10-16T08:08:01;17.40;99.90
24041;DHT22;12246;47.612;18.906;2022-10-16T08:10:54;17.30;99.90
24041;DHT22;12246;47.612;18.906;2022-10-16T08:13:46;17.30;99.90
24041;DHT22;12246;47.612;18.906;2022-10-16T08:16:38;17.20;99.90
24041;DHT22;12246;47.612;18.906;2022-10-16T08:19:30;17.10;99.90
24041;DHT22;12246;47.612;18.906;2022-10-16T08:22:26;16.70;99.90
24041;DHT22;12246;47.612;18.906;2022-10-16T08:25:18;16.80;99.90
24041;DHT22;12246;47.612;18.906;2022-10-16T08:28:11;16.50;99.90
24041;DHT22;12246;47.612;18.906;2022-10-16T08:31:08;16.60;99.90
24041;DHT22;12246;47.612;18.906;2022-10-16T08:34:01;16.60;99.90
24041;DHT22;12246;47.612;18.906;2022-10-16T08:36:53;16.40;99.90
24041;DHT22;12246;47.612;18.906;2022-10-16T08:39:46;16.20;99.90
24041;DHT22;12246;47.612;18.906;2022-10-16T08:49:12;16.30;99.90
24041;DHT22;12246;47.612;18.906;2022-10-16T08:52:11;16.30;99.90
24041;DHT22;12246;47.612;18.906;2022-10-16T08:55:05;16.20;99.90
24041;DHT22;12246;47.612;18.906;2022-10-16T08:57:58;16.60;99.90
24041;DHT22;12246;47.612;18.906;2022-10-16T09:00:54;17.20;99.90
24041;DHT22;12246;47.612;18.906;2022-10-16T09:06:56;16.80;99.90
24041;DHT22;12246;47.612;18.906;2022-10-16T09:09:59;16.70;99.90
24041;DHT22;12246;47.612;18.906;2022-10-16T09:13:04;16.60;99.90
24041;DHT22;12246;47.612;18.906;2022-10-16T09:16:24;16.30;99.90
24041;DHT22;12246;47.612;18.906;2022-10-16T09:19:31;16.30;99.90
24041;DHT22;12246;47.612;18.906;2022-10-16T09:22:27;16.40;99.90
24041;DHT22;12246;47.612;18.906;2022-10-16T09:25:23;16.30;99.90
24041;DHT22;12246;47.612;18.906;2022-10-16T09:28:17;16.40;99.90
24041;DHT22;12246;47.612;18.906;2022-10-16T09:31:18;16.20;99.90
24041;DHT22;12246;47.612;18.906;2022-10-16T09:34:32;16.10;99.90
24041;DHT22;12246;47.612;18.906;2022-10-16T09:37:25;16.00;99.90
24041;DHT22;12246;47.612;18.906;2022-10-16T09:40:30;15.90;99.90
24041;DHT22;12246;47.612;18.906;2022-10-16T09:46:37;16.40;99.90
24041;DHT22;12246;47.612;18.906;2022-10-16T09:49:31;16.40;99.90
24041;DHT22;12246;47.612;18.906;2022-10-16T09:52:24;16.60;99.90
24041;DHT22;12246;47.612;18.906;2022-10-16T09:55:18;16.70;99.90
24041;DHT22;12246;47.612;18.906;2022-10-16T09:58:14;16.70;99.90
24041;DHT22;12246;47.612;18.906;2022-10-16T10:01:11;16.70;99.90
24041;DHT22;12246;47.612;18.906;2022-10-16T10:04:04;16.70;99.90
24041;DHT22;12246;47.612;18.906;2022-10-16T10:06:58;16.70;99.90
24041;DHT22;12246;47.612;18.906;2022-10-16T10:09:50;16.70;99.90
24041;DHT22;12246;47.612;18.906;2022-10-16T10:12:45;16.80;99.90
24041;DHT22;12246;47.612;18.906;2022-10-16T10:15:41;16.90;99.90
24041;DHT22;12246;47.612;18.906;2022-10-16T10:18:34;16.90;99.90
24041;DHT22;12246;47.612;18.906;2022-10-16T10:21:26;17.00;99.90
24041;DHT22;12246;47.612;18.906;2022-10-16T10:24:19;17.00;99.90
24041;DHT22;12246;47.612;18.906;2022-10-16T10:27:16;17.10;99.90
24041;DHT22;12246;47.612;18.906;2022-10-16T10:30:23;17.20;99.90
24041;DHT22;12246;47.612;18.906;2022-10-16T10:36:35;17.50;99.90
24041;DHT22;12246;47.612;18.906;2022-10-16T10:39:50;17.60;99.90
24041;DHT22;12246;47.612;18.906;2022-10-16T10:42:52;17.50;99.90
24041;DHT22;12246;47.612;18.906;2022-10-16T10:45:47;17.50;99.90
24041;DHT22;12246;47.612;18.906;2022-10-16T10:58:41;17.60;99.90
24041;DHT22;12246;47.612;18.906;2022-10-16T11:05:02;17.70;99.90
24041;DHT22;12246;47.612;18.906;2022-10-16T11:08:08;17.60;99.90
24041;DHT22;12246;47.612;18.906;2022-10-16T11:11:09;17.90;99.90
24041;DHT22;12246;47.612;18.906;2022-10-16T11:17:30;17.90;99.90
24041;DHT22;12246;47.612;18.906;2022-10-16T11:20:26;17.90;99.90
24041;DHT22;12246;47.612;18.906;2022-10-16T11:26:41;18.10;99.90
24041;DHT22;12246;47.612;18.906;2022-10-16T11:29:35;18.20;99.90
24041;DHT22;12246;47.612;18.906;2022-10-16T11:33:25;18.30;99.90
24041;DHT22;12246;47.612;18.906;2022-10-16T11:36:43;18.20;99.90
24041;DHT22;12246;47.612;18.906;2022-10-16T11:39:27;18.30;99.90
24041;DHT22;12246;47.612;18.906;2022-10-16T11:42:30;18.40;99.90
24041;DHT22;12246;47.612;18.906;2022-10-16T11:45:38;18.40;99.90
24041;DHT22;12246;47.612;18.906;2022-10-16T11:52:16;18.40;99.90
24041;DHT22;12246;47.612;18.906;2022-10-16T11:55:31;18.40;99.90
24041;DHT22;12246;47.612;18.906;2022-10-16T12:04:33;18.50;99.90
24041;DHT22;12246;47.612;18.906;2022-10-16T12:07:42;18.70;99.90
24041;DHT22;12246;47.612;18.906;2022-10-16T12:10:36;18.80;99.90
24041;DHT22;12246;47.612;18.906;2022-10-16T12:13:35;18.80;99.90
24041;DHT22;12246;47.612;18.906;2022-10-16T12:16:28;18.80;99.90
24041;DHT22;12246;47.612;18.906;2022-10-16T12:19:21;18.90;99.90
24041;DHT22;12246;47.612;18.906;2022-10-16T12:22:18;18.80;99.90
24041;DHT22;12246;47.612;18.906;2022-10-16T12:25:40;18.80;99.90
24041;DHT22;12246;47.612;18.906;2022-10-16T12:28:38;18.70;99.90
24041;DHT22;12246;47.612;18.906;2022-10-16T12:31:38;18.60;99.90
24041;DHT22;12246;47.612;18.906;2022-10-16T12:34:48;18.80;99.90
24041;DHT22;12246;47.612;18.906;2022-10-16T12:37:41;18.90;99.90
24041;DHT22;12246;47.612;18.906;2022-10-16T12:40:35;18.90;99.90
24041;DHT22;12246;47.612;18.906;2022-10-16T12:43:37;18.90;99.90
24041;DHT22;12246;47.612;18.906;2022-10-16T12:49:36;19.00;99.90
24041;DHT22;12246;47.612;18.906;2022-10-16T12:52:37;19.00;99.90
24041;DHT22;12246;47.612;18.906;2022-10-16T12:59:47;19.20;99.90
24041;DHT22;12246;47.612;18.906;2022-10-16T13:02:36;19.20;99.90
24041;DHT22;12246;47.612;18.906;2022-10-16T13:12:36;19.20;99.90
24041;DHT22;12246;47.612;18.906;2022-10-16T13:28:23;19.20;99.90
24041;DHT22;12246;47.612;18.906;2022-10-16T13:31:22;19.20;99.90
24041;DHT22;12246;47.612;18.906;2022-10-16T13:34:19;19.20;99.90
24041;DHT22;12246;47.612;18.906;2022-10-16T13:37:24;19.20;99.90
24041;DHT22;12246;47.612;18.906;2022-10-16T13:40:23;19.20;99.90
24041;DHT22;12246;47.612;18.906;2022-10-16T13:43:24;19.20;99.90
24041;DHT22;12246;47.612;18.906;2022-10-16T13:46:22;19.20;99.90
24041;DHT22;12246;47.612;18.906;2022-10-16T13:49:16;19.30;99.90
24041;DHT22;12246;47.612;18.906;2022-10-16T13:52:18;19.20;99.90
24041;DHT22;12246;47.612;18.906;2022-10-16T13:55:15;19.20;99.90
24041;DHT22;12246;47.612;18.906;2022-10-16T13:58:12;19.20;99.90
24041;DHT22;12246;47.612;18.906;2022-10-16T14:01:19;19.10;99.90
24041;DHT22;12246;47.612;18.906;2022-10-16T14:04:13;19.10;99.90
24041;DHT22;12246;47.612;18.906;2022-10-16T14:07:11;19.10;99.90
24041;DHT22;12246;47.612;18.906;2022-10-16T14:10:27;19.00;99.90
24041;DHT22;12246;47.612;18.906;2022-10-16T14:13:43;19.10;99.90
24041;DHT22;12246;47.612;18.906;2022-10-16T14:16:36;19.00;99.90
24041;DHT22;12246;47.612;18.906;2022-10-16T14:19:32;19.00;99.90
24041;DHT22;12246;47.612;18.906;2022-10-16T14:22:32;19.00;99.90
24041;DHT22;12246;47.612;18.906;2022-10-16T14:25:29;19.00;99.90
24041;DHT22;12246;47.612;18.906;2022-10-16T14:28:23;18.90;99.90
24041;DHT22;12246;47.612;18.906;2022-10-16T14:34:30;18.90;99.90
24041;DHT22;12246;47.612;18.906;2022-10-16T14:37:27;18.90;99.90
24041;DHT22;12246;47.612;18.906;2022-10-16T14:40:23;19.00;99.90
24041;DHT22;12246;47.612;18.906;2022-10-16T14:43:36;19.00;99.90
24041;DHT22;12246;47.612;18.906;2022-10-16T14:46:32;18.90;99.90
24041;DHT22;12246;47.612;18.906;2022-10-16T14:49:25;18.90;99.90
24041;DHT22;12246;47.612;18.906;2022-10-16T14:52:18;18.80;99.90
24041;DHT22;12246;47.612;18.906;2022-10-16T14:55:10;18.70;99.90
24041;DHT22;12246;47.612;18.906;2022-10-16T14:58:02;18.70;99.90
24041;DHT22;12246;47.612;18.906;2022-10-16T15:00:55;18.70;99.90
24041;DHT22;12246;47.612;18.906;2022-10-16T15:03:48;18.70;99.90
24041;DHT22;12246;47.612;18.906;2022-10-16T15:06:41;18.70;99.90
24041;DHT22;12246;47.612;18.906;2022-10-16T15:09:33;18.60;99.90
24041;DHT22;12246;47.612;18.906;2022-10-16T15:12:25;18.60;99.90
24041;DHT22;12246;47.612;18.906;2022-10-16T15:18:16;18.50;99.90
24041;DHT22;12246;47.612;18.906;2022-10-16T15:21:25;18.50;99.90
24041;DHT22;12246;47.612;18.906;2022-10-16T15:24:18;18.50;99.90
24041;DHT22;12246;47.612;18.906;2022-10-16T15:27:12;18.40;99.90
24041;DHT22;12246;47.612;18.906;2022-10-16T15:30:05;18.40;99.90
24041;DHT22;12246;47.612;18.906;2022-10-16T15:32:57;18.40;99.90
24041;DHT22;12246;47.612;18.906;2022-10-16T15:35:51;18.30;99.90
24041;DHT22;12246;47.612;18.906;2022-10-16T15:38:43;18.20;99.90
24041;DHT22;12246;47.612;18.906;2022-10-16T15:41:37;18.10;99.90
24041;DHT22;12246;47.612;18.906;2022-10-16T15:44:29;18.00;99.90
24041;DHT22;12246;47.612;18.906;2022-10-16T15:47:22;17.90;99.90
24041;DHT22;12246;47.612;18.906;2022-10-16T15:50:15;17.80;99.90
24041;DHT22;12246;47.612;18.906;2022-10-16T15:53:07;17.80;99.90
24041;DHT22;12246;47.612;18.906;2022-10-16T15:56:07;17.70;99.90
24041;DHT22;12246;47.612;18.906;2022-10-16T15:59:00;17.60;99.90
24041;DHT22;12246;47.612;18.906;2022-10-16T16:01:53;17.50;99.90
24041;DHT22;12246;47.612;18.906;2022-10-16T16:04:46;17.40;99.90
24041;DHT22;12246;47.612;18.906;2022-10-16T16:07:39;17.30;99.90
24041;DHT22;12246;47.612;18.906;2022-10-16T16:10:32;17.10;99.90
24041;DHT22;12246;47.612;18.906;2022-10-16T16:13:24;16.80;99.90
24041;DHT22;12246;47.612;18.906;2022-10-16T16:16:17;16.70;99.90
24041;DHT22;12246;47.612;18.906;2022-10-16T16:19:09;16.70;99.90
24041;DHT22;12246;47.612;18.906;2022-10-16T16:22:03;16.50;99.90
24041;DHT22;12246;47.612;18.906;2022-10-16T16:25:01;16.40;99.90
24041;DHT22;12246;47.612;18.906;2022-10-16T16:27:53;16.40;99.90
24041;DHT22;12246;47.612;18.906;2022-10-16T16:30:46;16.40;99.90
24041;DHT22;12246;47.612;18.906;2022-10-16T16:33:42;16.30;99.90
24041;DHT22;12246;47.612;18.906;2022-10-16T16:36:36;16.30;99.90
24041;DHT22;12246;47.612;18.906;2022-10-16T16:39:28;16.30;99.90
24041;DHT22;12246;47.612;18.906;2022-10-16T16:42:20;16.20;99.90
24041;DHT22;12246;47.612;18.906;2022-10-16T16:45:12;16.20;99.90
24041;DHT22;12246;47.612;18.906;2022-10-16T16:48:05;16.10;99.90
24041;DHT22;12246;47.612;18.906;2022-10-16T16:51:06;16.20;99.90
24041;DHT22;12246;47.612;18.906;2022-10-16T16:53:59;16.10;99.90
24041;DHT22;12246;47.612;18.906;2022-10-16T16:56:51;16.00;99.90
24041;DHT22;12246;47.612;18.906;2022-10-16T16:59:43;16.00;99.90
24041;DHT22;12246;47.612;18.906;2022-10-16T17:02:35;16.00;99.90
24041;DHT22;12246;47.612;18.906;2022-10-16T17:05:27;15.90;99.90
24041;DHT22;12246;47.612;18.906;2022-10-16T17:08:20;15.90;99.90
24041;DHT22;12246;47.612;18.906;2022-10-16T17:11:24;15.90;99.90
24041;DHT22;12246;47.612;18.906;2022-10-16T17:14:16;15.80;99.90
24041;DHT22;12246;47.612;18.906;2022-10-16T17:17:09;15.80;99.90
24041;DHT22;12246;47.612;18.906;2022-10-16T17:20:01;15.80;99.90
24041;DHT22;12246;47.612;18.906;2022-10-16T17:22:53;15.70;99.90
24041;DHT22;12246;47.612;18.906;2022-10-16T17:25:46;15.60;99.90
24041;DHT22;12246;47.612;18.906;2022-10-16T17:28:38;15.50;99.90
24041;DHT22;12246;47.612;18.906;2022-10-16T17:31:35;15.40;99.90
24041;DHT22;12246;47.612;18.906;2022-10-16T17:34:27;15.30;99.90
24041;DHT22;12246;47.612;18.906;2022-10-16T17:37:20;15.20;99.90
24041;DHT22;12246;47.612;18.906;2022-10-16T17:40:12;15.10;99.90
24041;DHT22;12246;47.612;18.906;2022-10-16T17:43:09;15.00;99.90
24041;DHT22;12246;47.612;18.906;2022-10-16T17:46:02;15.00;99.90
24041;DHT22;12246;47.612;18.906;2022-10-16T17:48:55;15.00;99.90
24041;DHT22;12246;47.612;18.906;2022-10-16T17:51:52;14.90;99.90
24041;DHT22;12246;47.612;18.906;2022-10-16T17:54:44;14.80;99.90
24041;DHT22;12246;47.612;18.906;2022-10-16T17:57:36;14.80;99.90
24041;DHT22;12246;47.612;18.906;2022-10-16T18:00:28;14.70;99.90
24041;DHT22;12246;47.612;18.906;2022-10-16T18:03:21;14.70;99.90
24041;DHT22;12246;47.612;18.906;2022-10-16T18:06:13;14.70;99.90
24041;DHT22;12246;47.612;18.906;2022-10-16T18:09:11;14.70;99.90
24041;DHT22;12246;47.612;18.906;2022-10-16T18:12:05;14.60;99.90
24041;DHT22;12246;47.612;18.906;2022-10-16T18:14:57;14.50;99.90
24041;DHT22;12246;47.612;18.906;2022-10-16T18:17:49;14.50;99.90
24041;DHT22;12246;47.612;18.906;2022-10-16T18:20:41;14.40;99.90
24041;DHT22;12246;47.612;18.906;2022-10-16T18:23:35;14.40;99.90
24041;DHT22;12246;47.612;18.906;2022-10-16T18:26:28;14.40;99.90
24041;DHT22;12246;47.612;18.906;2022-10-16T18:29:20;14.30;99.90
24041;DHT22;12246;47.612;18.906;2022-10-16T18:32:12;14.20;99.90
24041;DHT22;12246;47.612;18.906;2022-10-16T18:35:05;14.20;99.90
24041;DHT22;12246;47.612;18.906;2022-10-16T18:37:57;14.20;99.90
24041;DHT22;12246;47.612;18.906;2022-10-16T18:40:51;14.20;99.90
24041;DHT22;12246;47.612;18.906;2022-10-16T18:43:43;14.20;99.90
24041;DHT22;12246;47.612;18.906;2022-10-16T18:46:36;14.20;99.90
24041;DHT22;12246;47.612;18.906;2022-10-16T18:49:28;14.10;99.90
24041;DHT22;12246;47.612;18.906;2022-10-16T18:52:21;14.00;99.90
24041;DHT22;12246;47.612;18.906;2022-10-16T18:55:15;13.90;99.90
24041;DHT22;12246;47.612;18.906;2022-10-16T18:58:07;14.00;99.90
24041;DHT22;12246;47.612;18.906;2022-10-16T19:01:07;14.00;99.90
24041;DHT22;12246;47.612;18.906;2022-10-16T19:04:02;13.80;99.90
24041;DHT22;12246;47.612;18.906;2022-10-16T19:06:54;13.80;99.90
24041;DHT22;12246;47.612;18.906;2022-10-16T19:09:46;13.70;99.90
24041;DHT22;12246;47.612;18.906;2022-10-16T19:12:39;13.70;99.90
24041;DHT22;12246;47.612;18.906;2022-10-16T19:15:32;13.70;99.90
24041;DHT22;12246;47.612;18.906;2022-10-16T19:18:25;13.70;99.90
24041;DHT22;12246;47.612;18.906;2022-10-16T19:21:18;13.60;99.90
24041;DHT22;12246;47.612;18.906;2022-10-16T19:24:15;13.50;99.90
24041;DHT22;12246;47.612;18.906;2022-10-16T19:27:07;13.40;99.90
24041;DHT22;12246;47.612;18.906;2022-10-16T19:30:00;13.40;99.90
24041;DHT22;12246;47.612;18.906;2022-10-16T19:32:52;12.90;99.90
24041;DHT22;12246;47.612;18.906;2022-10-16T19:35:44;12.30;99.90
24041;DHT22;12246;47.612;18.906;2022-10-16T19:38:37;12.10;99.90
24041;DHT22;12246;47.612;18.906;2022-10-16T19:41:29;12.00;99.90